Time;durP1;ratioP1;P1;durP2;ratioP2;P2;SDS_P1;SDS_P2;PMS_P1;PMS_P2;Temp;Humidity;BMP_temperature;BMP_pressure;BME280_temperature;BME280_humidity;BME280_pressure;Samples;Min_cycle;Max_cycle;Signal;HPM_P1;HPM_P2
2021/03/22 00:00:48;;;;;;;20.07;3.40;;;2.70;99.90;;;;;;5044949;28;20173;-59
2021/03/22 00:03:16;;;;;;;13.80;3.27;;;2.70;99.90;;;;;;5043946;28;20190;-59
2021/03/22 00:05:42;;;;;;;11.97;2.93;;;2.70;99.90;;;;;;5039498;28;20202;-59
2021/03/22 00:08:08;;;;;;;12.40;3.37;;;2.70;99.90;;;;;;5044149;28;20260;-59
2021/03/22 00:10:36;;;;;;;13.57;4.03;;;2.60;99.90;;;;;;5037449;28;22937;-59
2021/03/22 00:13:01;;;;;;;19.57;4.67;;;2.60;99.90;;;;;;5040685;28;20194;-58
2021/03/22 00:15:29;;;;;;;13.90;3.50;;;2.60;99.90;;;;;;5049707;28;20180;-59
2021/03/22 00:17:55;;;;;;;21.10;4.17;;;2.60;99.90;;;;;;5053515;28;20206;-57
2021/03/22 00:20:21;;;;;;;23.33;3.30;;;2.60;99.90;;;;;;5055269;28;20258;-57
2021/03/22 00:22:47;;;;;;;11.90;3.40;;;2.60;99.90;;;;;;5062041;28;20196;-58
2021/03/22 00:25:13;;;;;;;16.20;3.53;;;2.60;99.90;;;;;;5062734;28;20171;-58
2021/03/22 00:27:39;;;;;;;18.03;3.67;;;2.60;99.90;;;;;;5031199;28;21389;-56
2021/03/22 00:30:10;;;;;;;17.87;3.07;;;2.60;99.90;;;;;;5056961;28;20169;-58
2021/03/22 00:32:35;;;;;;;23.20;3.80;;;2.60;99.90;;;;;;5042660;28;20228;-59
2021/03/22 00:35:02;;;;;;;15.33;3.07;;;2.60;99.90;;;;;;5045635;28;20173;-56
2021/03/22 00:37:27;;;;;;;16.87;3.50;;;2.60;99.90;;;;;;5028288;28;20203;-57
2021/03/22 00:39:53;;;;;;;18.57;3.70;;;2.60;99.90;;;;;;5025374;28;20237;-58
2021/03/22 00:42:19;;;;;;;21.87;3.33;;;2.60;99.90;;;;;;5019498;28;20236;-58
2021/03/22 00:44:45;;;;;;;14.10;2.90;;;2.60;99.90;;;;;;5052372;28;20199;-54
2021/03/22 00:47:10;;;;;;;15.73;3.37;;;2.60;99.90;;;;;;5055118;28;20600;-58
2021/03/22 00:49:36;;;;;;;18.33;3.80;;;2.60;99.90;;;;;;5053240;28;20231;-57
2021/03/22 00:52:02;;;;;;;21.83;3.80;;;2.50;99.90;;;;;;5053292;28;20268;-54
2021/03/22 00:54:28;;;;;;;17.20;3.30;;;2.50;99.90;;;;;;5038820;28;20186;-53
2021/03/22 00:56:53;;;;;;;11.03;3.00;;;2.50;99.90;;;;;;5035862;28;20242;-55
2021/03/22 00:59:20;;;;;;;19.30;3.67;;;2.50;99.90;;;;;;5026870;28;20194;-57
2021/03/22 01:01:46;;;;;;;13.90;3.43;;;2.40;99.90;;;;;;5051787;28;20217;-55
2021/03/22 01:04:11;;;;;;;10.50;2.97;;;2.40;99.90;;;;;;5043134;28;20181;-58
2021/03/22 01:06:37;;;;;;;22.03;3.87;;;2.40;99.90;;;;;;5041653;28;20346;-56
2021/03/22 01:09:05;;;;;;;19.57;5.03;;;2.40;99.90;;;;;;5053047;28;20194;-55
2021/03/22 01:11:30;;;;;;;21.10;3.40;;;2.40;99.90;;;;;;5053077;28;20760;-55
2021/03/22 01:13:58;;;;;;;13.60;3.27;;;2.40;99.90;;;;;;5043948;28;20186;-53
2021/03/22 01:16:27;;;;;;;18.80;3.27;;;2.40;99.90;;;;;;5038850;28;20245;-58
2021/03/22 01:18:55;;;;;;;10.93;2.77;;;2.40;99.90;;;;;;5055564;28;20694;-54
2021/03/22 01:21:46;;;;;;;20.77;3.80;;;2.30;99.90;;;;;;5060634;28;20185;-58
2021/03/22 01:24:14;;;;;;;17.77;3.47;;;2.30;99.90;;;;;;5056259;28;20201;-57
2021/03/22 01:26:41;;;;;;;15.13;3.37;;;2.30;99.90;;;;;;5061562;28;20193;-57
2021/03/22 01:29:13;;;;;;;13.23;3.37;;;2.30;99.90;;;;;;5041147;28;20546;-58
2021/03/22 01:31:39;;;;;;;13.93;3.77;;;2.30;99.90;;;;;;5046550;28;20288;-58
2021/03/22 01:34:05;;;;;;;18.70;3.23;;;2.20;99.90;;;;;;5048102;28;20645;-58
2021/03/22 01:36:33;;;;;;;16.13;2.93;;;2.20;99.90;;;;;;5039852;28;21138;-57
2021/03/22 01:39:08;;;;;;;14.17;3.10;;;2.20;99.90;;;;;;5039060;28;20215;-58
2021/03/22 01:41:47;;;;;;;16.97;3.00;;;2.20;99.90;;;;;;5040472;28;20931;-57
2021/03/22 01:44:21;;;;;;;23.33;3.63;;;2.20;99.90;;;;;;5032856;28;20213;-58
2021/03/22 01:47:00;;;;;;;16.83;3.57;;;2.20;99.90;;;;;;5052383;28;20212;-56
2021/03/22 01:49:28;;;;;;;15.80;4.10;;;2.20;99.90;;;;;;5032686;28;20204;-56
2021/03/22 01:51:55;;;;;;;20.73;3.80;;;2.20;99.90;;;;;;5063102;28;20259;-57
2021/03/22 01:54:21;;;;;;;24.77;3.83;;;2.20;99.90;;;;;;5053714;28;20203;-57
2021/03/22 01:56:52;;;;;;;23.53;3.90;;;2.20;99.90;;;;;;5062246;28;20261;-58
2021/03/22 01:59:31;;;;;;;12.23;3.27;;;2.10;99.90;;;;;;5046023;28;20250;-59
2021/03/22 02:02:00;;;;;;;15.63;2.90;;;2.10;99.90;;;;;;5038326;28;20213;-57
2021/03/22 02:04:27;;;;;;;22.33;3.23;;;2.10;99.90;;;;;;5047432;28;20177;-58
2021/03/22 02:06:53;;;;;;;16.97;3.07;;;2.10;99.90;;;;;;5043122;28;20772;-57
2021/03/22 02:09:19;;;;;;;10.40;3.07;;;2.10;99.90;;;;;;5036116;28;20261;-58
2021/03/22 02:11:44;;;;;;;16.03;3.87;;;2.00;99.90;;;;;;5034593;28;20567;-58
2021/03/22 02:14:12;;;;;;;16.97;3.70;;;2.00;99.90;;;;;;5040808;28;20177;-59
2021/03/22 02:17:01;;;;;;;19.73;3.50;;;2.00;99.90;;;;;;5025577;28;20190;-59
2021/03/22 02:19:39;;;;;;;19.23;3.47;;;2.00;99.90;;;;;;5048628;28;20475;-59
2021/03/22 02:22:38;;;;;;;16.03;3.37;;;2.00;99.90;;;;;;5062706;28;20672;-58
2021/03/22 02:25:54;;;;;;;18.97;3.90;;;2.00;99.90;;;;;;5046194;28;20563;-58
2021/03/22 02:29:03;;;;;;;18.13;4.13;;;2.00;99.90;;;;;;5018405;28;20299;-58
2021/03/22 02:31:55;;;;;;;20.60;3.70;;;1.90;99.90;;;;;;5025403;28;20187;-58
2021/03/22 02:34:41;;;;;;;12.60;2.90;;;1.90;99.90;;;;;;5036165;28;20208;-59
2021/03/22 02:37:09;;;;;;;12.67;3.27;;;1.90;99.90;;;;;;5058080;28;20205;-58
2021/03/22 02:39:47;;;;;;;15.13;3.00;;;1.90;99.90;;;;;;5059371;28;20204;-58
2021/03/22 02:42:14;;;;;;;27.43;4.53;;;1.90;99.90;;;;;;5055039;28;20280;-59
2021/03/22 02:44:40;;;;;;;17.33;3.57;;;1.90;99.90;;;;;;5060536;28;20237;-58
2021/03/22 02:47:18;;;;;;;20.60;3.50;;;1.80;99.90;;;;;;5050086;28;20839;-59
2021/03/22 02:49:44;;;;;;;21.60;3.60;;;1.80;99.90;;;;;;5028754;28;20188;-58
2021/03/22 02:52:36;;;;;;;25.33;4.87;;;1.80;99.90;;;;;;5053139;28;20188;-57
2021/03/22 02:55:08;;;;;;;18.07;4.03;;;1.80;99.90;;;;;;5062858;28;20534;-57
2021/03/22 02:57:39;;;;;;;19.53;3.37;;;1.80;99.90;;;;;;5051841;28;20940;-52
2021/03/22 03:00:11;;;;;;;20.70;3.50;;;1.80;99.90;;;;;;5042305;28;20161;-58
2021/03/22 03:02:39;;;;;;;16.00;3.57;;;1.80;99.90;;;;;;5035309;28;20211;-57
2021/03/22 03:05:14;;;;;;;16.40;4.00;;;1.80;99.90;;;;;;5026548;28;20250;-58
2021/03/22 03:07:40;;;;;;;20.80;3.40;;;1.80;99.90;;;;;;5040019;28;21009;-55
2021/03/22 03:10:09;;;;;;;20.13;3.47;;;1.80;99.90;;;;;;5046179;28;20259;-58
2021/03/22 03:12:34;;;;;;;17.93;3.77;;;1.70;99.90;;;;;;5043192;28;20947;-55
2021/03/22 03:15:00;;;;;;;16.57;4.07;;;1.70;99.90;;;;;;5054964;28;20219;-57
2021/03/22 03:17:26;;;;;;;18.17;3.87;;;1.70;99.90;;;;;;5060089;28;20787;-60
2021/03/22 03:19:53;;;;;;;21.07;3.83;;;1.70;99.90;;;;;;5041522;28;20213;-57
2021/03/22 03:22:20;;;;;;;16.60;3.90;;;1.70;99.90;;;;;;5040060;28;20205;-59
2021/03/22 03:24:46;;;;;;;13.27;4.00;;;1.60;99.90;;;;;;5052760;28;20182;-59
2021/03/22 03:27:13;;;;;;;15.60;3.47;;;1.60;99.90;;;;;;5044338;28;20313;-59
2021/03/22 03:29:40;;;;;;;18.50;3.73;;;1.60;99.90;;;;;;5039754;28;21076;-57
2021/03/22 03:32:09;;;;;;;11.20;3.27;;;1.60;99.90;;;;;;5045936;28;20252;-58
2021/03/22 03:34:34;;;;;;;17.20;3.17;;;1.50;99.90;;;;;;5038250;28;20212;-55
2021/03/22 03:37:00;;;;;;;17.97;4.27;;;1.40;99.90;;;;;;5040135;28;20676;-57
2021/03/22 03:39:26;;;;;;;19.90;3.77;;;1.50;99.90;;;;;;5051286;28;20260;-55
2021/03/22 03:41:52;;;;;;;14.47;4.13;;;1.50;99.90;;;;;;5045843;28;20193;-55
2021/03/22 03:44:18;;;;;;;22.53;3.87;;;1.50;99.90;;;;;;5043135;28;20647;-57
2021/03/22 03:46:43;;;;;;;17.40;3.73;;;1.50;99.90;;;;;;5050200;28;20261;-56
2021/03/22 03:49:09;;;;;;;22.10;4.27;;;1.50;99.90;;;;;;5043847;28;20181;-58
2021/03/22 03:51:37;;;;;;;13.57;4.30;;;1.50;99.90;;;;;;5042929;28;20181;-55
2021/03/22 03:54:05;;;;;;;17.63;4.37;;;1.50;99.90;;;;;;5041611;28;20246;-55
2021/03/22 03:56:31;;;;;;;21.23;4.30;;;1.50;99.90;;;;;;5053214;28;20192;-55
2021/03/22 03:58:57;;;;;;;22.80;4.30;;;1.40;99.90;;;;;;5065321;28;20204;-57
2021/03/22 04:01:24;;;;;;;16.47;3.50;;;1.50;99.90;;;;;;5055701;28;20177;-58
2021/03/22 04:03:50;;;;;;;16.13;4.03;;;1.50;99.90;;;;;;5065628;28;20224;-58
2021/03/22 04:06:20;;;;;;;14.23;3.90;;;1.40;99.90;;;;;;5041095;28;20610;-58
2021/03/22 04:08:50;;;;;;;18.37;4.20;;;1.40;99.90;;;;;;5036518;28;20294;-58
2021/03/22 04:11:21;;;;;;;18.07;3.87;;;1.40;99.90;;;;;;5054420;28;20196;-57
2021/03/22 04:13:47;;;;;;;14.73;3.27;;;1.40;99.90;;;;;;5045120;28;20212;-58
2021/03/22 04:16:14;;;;;;;12.43;3.47;;;1.40;99.90;;;;;;5045764;28;20208;-58
2021/03/22 04:18:40;;;;;;;23.63;4.07;;;1.30;99.90;;;;;;5030164;28;20225;-58
2021/03/22 04:21:13;;;;;;;24.57;3.50;;;1.30;99.90;;;;;;5039721;28;20596;-58
2021/03/22 04:23:41;;;;;;;15.63;3.40;;;1.30;99.90;;;;;;5042957;28;20169;-57
2021/03/22 04:26:07;;;;;;;16.53;4.33;;;1.30;99.90;;;;;;5041435;28;20208;-59
2021/03/22 04:28:33;;;;;;;15.73;3.90;;;1.30;99.90;;;;;;5054004;28;20256;-59
2021/03/22 04:31:00;;;;;;;15.20;3.37;;;1.30;99.90;;;;;;5059148;28;20188;-58
2021/03/22 04:33:25;;;;;;;18.17;3.83;;;1.20;99.90;;;;;;5061750;28;20168;-59
2021/03/22 04:35:51;;;;;;;16.33;3.43;;;1.20;99.90;;;;;;5055167;28;20175;-58
2021/03/22 04:38:17;;;;;;;20.43;4.30;;;1.20;99.90;;;;;;5042426;28;20219;-58
2021/03/22 04:40:43;;;;;;;18.23;4.27;;;1.20;99.90;;;;;;5039267;28;20181;-56
2021/03/22 04:43:09;;;;;;;17.50;4.40;;;1.20;99.90;;;;;;5052182;28;20252;-57
2021/03/22 04:45:35;;;;;;;18.37;4.40;;;1.20;99.90;;;;;;5042393;28;20268;-59
2021/03/22 04:48:00;;;;;;;19.53;5.17;;;1.20;99.90;;;;;;5047653;28;20296;-59
2021/03/22 04:50:28;;;;;;;24.50;5.20;;;1.20;99.90;;;;;;5059322;28;20177;-59
2021/03/22 04:52:54;;;;;;;17.07;4.20;;;1.20;99.90;;;;;;5046163;28;20198;-59
2021/03/22 04:55:22;;;;;;;20.33;4.53;;;1.20;99.90;;;;;;5032544;28;20200;-59
2021/03/22 04:57:47;;;;;;;19.17;4.03;;;1.30;99.90;;;;;;5055345;28;20208;-57
2021/03/22 05:00:21;;;;;;;21.90;4.63;;;1.30;99.90;;;;;;5046090;28;20183;-59
2021/03/22 05:02:47;;;;;;;19.67;4.57;;;1.30;99.90;;;;;;5038529;28;20191;-58
2021/03/22 05:05:13;;;;;;;21.80;5.10;;;1.40;99.90;;;;;;5057646;28;20278;-58
2021/03/22 05:07:38;;;;;;;21.27;5.07;;;1.40;99.90;;;;;;5034383;28;20293;-56
2021/03/22 05:10:06;;;;;;;14.57;4.40;;;1.40;99.90;;;;;;5044008;28;20182;-55
2021/03/22 05:12:32;;;;;;;27.33;4.73;;;1.40;99.90;;;;;;5040804;28;20180;-58
2021/03/22 05:14:58;;;;;;;17.97;5.00;;;1.50;99.90;;;;;;5049823;28;20694;-51
2021/03/22 05:17:24;;;;;;;24.70;5.50;;;1.50;99.90;;;;;;5043833;28;20250;-57
2021/03/22 05:19:50;;;;;;;28.07;5.27;;;1.60;99.90;;;;;;5048774;28;20275;-54
2021/03/22 05:22:15;;;;;;;25.70;5.20;;;1.70;99.90;;;;;;5047864;28;20292;-58
2021/03/22 05:24:41;;;;;;;30.93;5.17;;;1.70;99.90;;;;;;5027280;28;20195;-57
2021/03/22 05:27:07;;;;;;;27.63;5.10;;;1.80;99.90;;;;;;5027602;28;20298;-59
2021/03/22 05:29:33;;;;;;;32.83;5.70;;;1.80;99.90;;;;;;5050123;28;20905;-59
2021/03/22 05:31:58;;;;;;;23.17;5.07;;;1.90;99.90;;;;;;5042477;28;20173;-58
2021/03/22 05:34:24;;;;;;;26.37;5.60;;;2.00;99.90;;;;;;5052359;28;20917;-59
2021/03/22 05:36:51;;;;;;;17.17;5.37;;;2.00;99.90;;;;;;5053979;28;20213;-59
2021/03/22 05:39:17;;;;;;;20.23;4.93;;;2.10;99.90;;;;;;5037233;28;20185;-59
2021/03/22 05:42:11;;;;;;;31.80;5.77;;;2.10;99.90;;;;;;5042737;28;20205;-59
2021/03/22 05:44:53;;;;;;;14.23;4.77;;;2.20;99.90;;;;;;5044135;28;20186;-59
2021/03/22 05:47:22;;;;;;;22.70;5.47;;;2.20;99.90;;;;;;5057047;28;20213;-59
2021/03/22 05:50:06;;;;;;;23.93;6.10;;;2.30;99.90;;;;;;5039963;28;20290;-59
2021/03/22 05:53:06;;;;;;;30.50;5.93;;;2.30;99.90;;;;;;5034318;28;20177;-58
2021/03/22 05:55:36;;;;;;;30.43;5.63;;;2.40;99.90;;;;;;5035212;28;20186;-56
2021/03/22 05:58:20;;;;;;;25.70;5.27;;;2.40;99.90;;;;;;5033620;28;20866;-56
2021/03/22 06:00:46;;;;;;;20.60;5.37;;;2.40;99.90;;;;;;5040120;28;20188;-58
2021/03/22 06:03:18;;;;;;;26.50;5.83;;;2.50;99.90;;;;;;5043377;28;20186;-55
2021/03/22 06:06:05;;;;;;;22.77;5.50;;;2.50;99.90;;;;;;5035134;28;20193;-57
2021/03/22 06:08:52;;;;;;;25.50;5.77;;;2.50;99.90;;;;;;5036170;28;20245;-58
2021/03/22 06:11:26;;;;;;;20.90;5.83;;;2.50;99.90;;;;;;5038919;28;20545;-53
2021/03/22 06:14:18;;;;;;;16.20;4.97;;;2.50;99.90;;;;;;5024539;28;20192;-54
2021/03/22 06:16:48;;;;;;;26.73;5.70;;;2.60;99.90;;;;;;5033264;28;20316;-55
2021/03/22 06:19:17;;;;;;;23.20;6.47;;;2.60;99.90;;;;;;5025742;28;20252;-58
2021/03/22 06:21:48;;;;;;;30.57;7.27;;;2.60;99.90;;;;;;5029379;28;20711;-57
2021/03/22 06:24:23;;;;;;;27.27;6.53;;;2.60;99.90;;;;;;5034381;28;20178;-59
2021/03/22 06:27:00;;;;;;;23.33;5.50;;;2.70;99.90;;;;;;5031553;28;20212;-58
2021/03/22 06:29:34;;;;;;;24.43;5.97;;;2.70;99.90;;;;;;5029543;28;20299;-58
2021/03/22 06:32:04;;;;;;;24.67;6.07;;;2.70;99.90;;;;;;5033995;28;20276;-58
2021/03/22 06:34:56;;;;;;;20.30;6.60;;;2.70;99.90;;;;;;5036535;28;20186;-57
2021/03/22 06:37:29;;;;;;;20.10;4.87;;;2.70;99.90;;;;;;5034392;28;20214;-56
2021/03/22 06:40:14;;;;;;;22.97;6.30;;;2.70;99.90;;;;;;5033751;28;20195;-59
2021/03/22 06:42:41;;;;;;;27.17;6.73;;;2.80;99.90;;;;;;5034065;28;20190;-59
2021/03/22 06:45:28;;;;;;;15.60;5.53;;;2.70;99.90;;;;;;5028231;28;20197;-57
2021/03/22 06:48:11;;;;;;;25.23;5.77;;;2.80;99.90;;;;;;5050257;28;20220;-58
2021/03/22 06:50:37;;;;;;;20.73;6.27;;;2.90;99.90;;;;;;5034748;28;20269;-58
2021/03/22 06:53:02;;;;;;;20.00;5.80;;;2.90;99.90;;;;;;5032024;28;20320;-56
2021/03/22 06:55:42;;;;;;;19.30;6.00;;;2.90;99.90;;;;;;5042148;28;20173;-56
2021/03/22 06:58:25;;;;;;;21.30;6.13;;;3.00;99.90;;;;;;5033624;28;20222;-54
2021/03/22 07:00:51;;;;;;;17.80;5.67;;;3.00;99.90;;;;;;5030996;28;20180;-55
2021/03/22 07:03:24;;;;;;;15.07;5.53;;;3.00;99.90;;;;;;5050940;28;20280;-54
2021/03/22 07:05:49;;;;;;;27.23;5.67;;;3.10;99.90;;;;;;5033615;28;20198;-56
2021/03/22 07:08:20;;;;;;;18.13;5.57;;;3.10;99.90;;;;;;5027397;28;20213;-56
2021/03/22 07:10:51;;;;;;;23.10;5.13;;;3.10;99.90;;;;;;5042261;28;20248;-54
2021/03/22 07:13:26;;;;;;;14.27;5.33;;;3.20;99.90;;;;;;5026530;28;20183;-56
2021/03/22 07:15:56;;;;;;;13.87;4.27;;;3.20;99.90;;;;;;5031899;28;20193;-57
2021/03/22 07:18:31;;;;;;;15.70;4.50;;;3.20;99.90;;;;;;5038767;28;20348;-51
2021/03/22 07:20:59;;;;;;;16.23;4.13;;;3.20;99.90;;;;;;5030343;28;20766;-58
2021/03/22 07:23:25;;;;;;;14.67;4.77;;;3.20;99.90;;;;;;5026620;28;20243;-57
2021/03/22 07:25:58;;;;;;;11.90;4.50;;;3.30;99.90;;;;;;5030331;28;20190;-60
2021/03/22 07:28:48;;;;;;;20.87;4.10;;;3.30;99.90;;;;;;5029633;28;20672;-56
2021/03/22 07:31:44;;;;;;;10.53;4.93;;;3.40;99.90;;;;;;5024933;28;20290;-58
2021/03/22 07:34:26;;;;;;;12.07;4.33;;;3.40;99.90;;;;;;5037828;28;20171;-56
2021/03/22 07:37:20;;;;;;;18.67;4.03;;;3.40;99.90;;;;;;5023666;28;20182;-57
2021/03/22 07:39:57;;;;;;;17.47;5.07;;;3.50;99.90;;;;;;5036024;28;20309;-57
2021/03/22 07:42:39;;;;;;;11.67;4.17;;;3.50;99.90;;;;;;5041783;28;20194;-57
2021/03/22 07:45:43;;;;;;;18.80;4.07;;;3.50;99.90;;;;;;5018598;28;20202;-57
2021/03/22 07:48:11;;;;;;;9.50;3.80;;;3.50;99.90;;;;;;5035635;28;20282;-54
2021/03/22 07:50:50;;;;;;;13.13;4.27;;;3.60;99.90;;;;;;5053466;28;20281;-56
2021/03/22 07:53:37;;;;;;;18.50;4.50;;;3.60;99.90;;;;;;5036569;28;20241;-54
2021/03/22 07:56:24;;;;;;;13.43;4.43;;;3.70;99.90;;;;;;5037343;28;20197;-55
2021/03/22 07:58:50;;;;;;;13.77;4.57;;;3.90;99.90;;;;;;5024665;28;20574;-58
2021/03/22 08:01:33;;;;;;;6.87;3.80;;;4.00;99.90;;;;;;5033073;28;20171;-55
2021/03/22 08:04:25;;;;;;;12.77;5.20;;;4.10;99.90;;;;;;5028359;28;20277;-58
2021/03/22 08:07:22;;;;;;;13.47;4.43;;;4.20;99.90;;;;;;5043499;28;20242;-58
2021/03/22 08:09:58;;;;;;;10.93;3.53;;;4.20;99.90;;;;;;5033208;28;20183;-60
2021/03/22 08:12:30;;;;;;;11.50;4.00;;;4.30;99.90;;;;;;5041979;28;20183;-54
2021/03/22 08:15:17;;;;;;;12.90;3.83;;;4.40;99.90;;;;;;5033009;28;20187;-59
2021/03/22 08:17:53;;;;;;;14.23;4.57;;;4.50;99.90;;;;;;5044079;28;20593;-57
2021/03/22 08:20:30;;;;;;;8.53;4.27;;;4.60;99.90;;;;;;5033338;28;20183;-58
2021/03/22 08:23:38;;;;;;;10.67;4.43;;;4.60;99.90;;;;;;5041712;28;20274;-56
2021/03/22 08:26:10;;;;;;;14.53;4.50;;;4.50;99.90;;;;;;4988443;28;20298;-57
2021/03/22 08:28:57;;;;;;;16.93;4.33;;;4.60;99.90;;;;;;5001637;28;20220;-57
2021/03/22 08:31:30;;;;;;;8.30;3.83;;;4.60;99.90;;;;;;5032167;28;20198;-58
2021/03/22 08:34:16;;;;;;;10.70;4.30;;;4.60;99.90;;;;;;5031364;28;20191;-56
2021/03/22 08:36:56;;;;;;;14.77;4.63;;;4.70;99.90;;;;;;5041028;28;20528;-54
2021/03/22 08:39:32;;;;;;;7.83;3.97;;;4.70;99.90;;;;;;5047881;28;20192;-58
2021/03/22 08:42:19;;;;;;;16.87;3.60;;;4.80;99.90;;;;;;5039342;28;20336;-57
2021/03/22 08:45:09;;;;;;;9.60;3.80;;;4.90;99.90;;;;;;5039776;28;20187;-56
2021/03/22 08:47:38;;;;;;;15.17;4.00;;;5.20;99.90;;;;;;5043655;28;20218;-58
2021/03/22 08:50:15;;;;;;;7.37;4.37;;;5.30;99.90;;;;;;5025311;28;20191;-58
2021/03/22 08:52:55;;;;;;;15.67;3.47;;;5.30;99.90;;;;;;5047974;28;20696;-55
2021/03/22 08:55:24;;;;;;;8.37;3.13;;;5.20;99.90;;;;;;5049852;28;20199;-56
2021/03/22 08:57:56;;;;;;;9.07;3.77;;;5.30;99.90;;;;;;5035208;28;20215;-55
2021/03/22 09:00:35;;;;;;;13.37;4.40;;;5.40;99.90;;;;;;5039165;28;20745;-56
2021/03/22 09:03:12;;;;;;;11.03;3.93;;;5.40;99.90;;;;;;5033906;28;20179;-54
2021/03/22 09:05:40;;;;;;;9.43;4.10;;;5.50;99.90;;;;;;5040492;28;20546;-56
2021/03/22 09:08:23;;;;;;;11.90;4.17;;;5.50;99.90;;;;;;5030503;28;20214;-55
2021/03/22 09:10:50;;;;;;;10.80;3.87;;;5.60;99.90;;;;;;5022930;28;20263;-58
2021/03/22 09:13:26;;;;;;;10.17;3.10;;;5.70;99.90;;;;;;5020660;28;20192;-56
2021/03/22 09:16:13;;;;;;;9.83;3.40;;;5.80;99.90;;;;;;5021616;28;20206;-56
2021/03/22 09:19:20;;;;;;;10.23;3.30;;;5.90;99.90;;;;;;5082665;28;20194;-51
2021/03/22 09:22:12;;;;;;;11.87;3.50;;;5.90;99.90;;;;;;5011058;28;20190;-58
2021/03/22 09:27:16;;;;;;;8.93;2.80;;;6.00;99.90;;;;;;5043887;28;20882;-52
2021/03/22 09:30:08;;;;;;;9.50;3.60;;;6.10;99.90;;;;;;5051577;28;20229;-56
2021/03/22 09:32:36;;;;;;;10.20;3.40;;;6.20;99.90;;;;;;5017925;28;20721;-52
2021/03/22 09:35:17;;;;;;;7.23;3.00;;;6.30;99.90;;;;;;5031890;28;20280;-54
2021/03/22 09:37:51;;;;;;;8.93;2.80;;;6.40;99.90;;;;;;5036803;28;20194;-58
2021/03/22 09:40:23;;;;;;;8.60;3.33;;;6.50;99.90;;;;;;5041454;28;20162;-54
2021/03/22 09:43:12;;;;;;;7.57;3.30;;;6.50;99.90;;;;;;5037660;28;20202;-56
2021/03/22 09:45:50;;;;;;;7.17;2.23;;;6.60;99.90;;;;;;5044275;28;20194;-56
2021/03/22 09:48:35;;;;;;;10.67;3.23;;;6.70;99.90;;;;;;5036407;28;20217;-53
2021/03/22 09:51:00;;;;;;;8.07;3.20;;;6.80;99.90;;;;;;5027383;28;20204;-51
2021/03/22 09:53:48;;;;;;;7.47;2.80;;;6.90;99.90;;;;;;5029369;28;20184;-56
2021/03/22 09:56:32;;;;;;;9.40;2.90;;;6.90;99.90;;;;;;5044077;28;20198;-54
2021/03/22 09:59:43;;;;;;;7.77;2.90;;;7.00;99.90;;;;;;5037197;28;20210;-54
2021/03/22 10:02:27;;;;;;;12.53;3.30;;;7.10;99.90;;;;;;5022586;28;20210;-57
2021/03/22 10:05:17;;;;;;;6.17;3.07;;;7.30;99.90;;;;;;5041408;28;20889;-53
2021/03/22 10:08:00;;;;;;;10.03;2.80;;;7.30;99.90;;;;;;5027883;28;20313;-55
2021/03/22 10:10:51;;;;;;;5.63;2.87;;;7.50;99.90;;;;;;5054280;28;20185;-58
2021/03/22 10:13:33;;;;;;;12.13;3.20;;;7.50;99.90;;;;;;5046339;28;20180;-54
2021/03/22 10:16:12;;;;;;;6.70;3.07;;;7.50;99.90;;;;;;5042063;28;20774;-56
2021/03/22 10:19:03;;;;;;;6.13;2.90;;;7.60;99.90;;;;;;5044982;28;20206;-57
2021/03/22 10:21:33;;;;;;;9.73;2.90;;;7.70;99.90;;;;;;5031441;28;20202;-55
2021/03/22 10:24:40;;;;;;;4.93;2.60;;;7.80;99.90;;;;;;5035209;28;20178;-53
2021/03/22 10:27:36;;;;;;;7.50;2.73;;;7.80;99.90;;;;;;5032299;28;20222;-55
2021/03/22 10:30:21;;;;;;;9.70;3.17;;;7.80;99.90;;;;;;5035346;28;20235;-55
2021/03/22 10:33:06;;;;;;;6.60;2.17;;;7.90;99.90;;;;;;5024578;28;20187;-54
2021/03/22 10:35:50;;;;;;;3.63;2.57;;;7.90;99.90;;;;;;5039201;28;20160;-55
2021/03/22 10:38:28;;;;;;;5.63;3.20;;;8.00;99.90;;;;;;5036226;28;20226;-56
2021/03/22 10:40:55;;;;;;;5.37;2.17;;;8.10;99.90;;;;;;5038561;28;20219;-54
2021/03/22 10:43:41;;;;;;;5.77;2.77;;;8.10;99.90;;;;;;5000199;28;20797;-51
2021/03/22 10:46:18;;;;;;;5.23;2.33;;;8.10;99.90;;;;;;5035466;28;20344;-50
2021/03/22 10:48:45;;;;;;;6.87;2.10;;;8.10;99.90;;;;;;5032498;28;20233;-55
2021/03/22 10:51:18;;;;;;;5.97;2.80;;;8.10;99.90;;;;;;5038337;28;20201;-54
2021/03/22 10:54:02;;;;;;;4.70;2.50;;;8.10;99.90;;;;;;5025051;28;20685;-55
2021/03/22 10:56:46;;;;;;;6.73;2.13;;;8.20;99.90;;;;;;5040108;28;20197;-54
2021/03/22 10:59:24;;;;;;;4.27;1.80;;;8.40;99.90;;;;;;5032730;28;20993;-53
2021/03/22 11:01:53;;;;;;;3.50;1.80;;;8.40;99.90;;;;;;5031186;28;20241;-55
2021/03/22 11:04:28;;;;;;;4.43;2.00;;;8.40;99.90;;;;;;5038224;28;20187;-54
2021/03/22 11:06:56;;;;;;;7.40;1.90;;;8.40;99.90;;;;;;5033242;28;20261;-55
2021/03/22 11:09:30;;;;;;;5.03;2.10;;;8.40;99.90;;;;;;5050741;28;20569;-54
2021/03/22 11:11:59;;;;;;;8.10;2.07;;;8.40;99.90;;;;;;5034437;28;20217;-53
2021/03/22 11:14:29;;;;;;;6.20;2.37;;;8.40;99.90;;;;;;5035178;28;20183;-54
2021/03/22 11:16:57;;;;;;;3.90;1.97;;;8.40;99.90;;;;;;5038800;28;20223;-56
2021/03/22 11:19:36;;;;;;;4.50;2.90;;;8.30;99.90;;;;;;5044790;28;20188;-55
2021/03/22 11:22:14;;;;;;;5.13;2.37;;;8.40;99.90;;;;;;5034753;28;20888;-56
2021/03/22 11:24:42;;;;;;;2.57;1.83;;;8.50;99.90;;;;;;5039558;28;20220;-55
2021/03/22 11:27:11;;;;;;;5.47;2.50;;;8.70;99.90;;;;;;5044740;28;20210;-53
2021/03/22 11:30:01;;;;;;;3.90;1.70;;;8.60;99.90;;;;;;5045789;28;20182;-55
2021/03/22 11:32:33;;;;;;;3.33;1.60;;;8.70;99.90;;;;;;5044200;28;20175;-53
2021/03/22 11:35:28;;;;;;;9.37;2.37;;;8.60;99.90;;;;;;5036456;28;20306;-54
2021/03/22 11:37:57;;;;;;;6.80;2.20;;;8.60;99.90;;;;;;5032744;28;20222;-58
2021/03/22 11:40:27;;;;;;;3.97;1.80;;;8.70;99.90;;;;;;5030160;28;20175;-55
2021/03/22 11:42:54;;;;;;;10.03;2.27;;;8.70;99.90;;;;;;5044285;28;20203;-55
2021/03/22 11:45:33;;;;;;;4.67;2.23;;;9.00;99.90;;;;;;5035811;28;20195;-54
2021/03/22 11:48:00;;;;;;;2.83;1.90;;;9.20;99.90;;;;;;5042751;28;20923;-54
2021/03/22 11:50:28;;;;;;;5.80;2.17;;;9.30;99.90;;;;;;5038326;28;20184;-56
2021/03/22 11:53:01;;;;;;;4.83;2.63;;;9.40;99.90;;;;;;5035650;28;20176;-55
2021/03/22 11:55:36;;;;;;;6.57;2.77;;;9.30;99.90;;;;;;5042487;28;20184;-55
2021/03/22 11:58:02;;;;;;;5.77;2.17;;;9.30;99.90;;;;;;5035642;28;20992;-57
2021/03/22 12:00:31;;;;;;;4.83;2.30;;;9.40;99.90;;;;;;5039181;28;20202;-57
2021/03/22 12:03:18;;;;;;;5.30;2.30;;;9.50;99.90;;;;;;5037289;28;20403;-55
2021/03/22 12:05:44;;;;;;;3.53;2.20;;;9.50;99.90;;;;;;5039136;28;20194;-53
2021/03/22 12:08:32;;;;;;;4.90;2.60;;;9.40;99.90;;;;;;5035218;28;20199;-55
2021/03/22 12:10:58;;;;;;;4.33;2.40;;;9.20;99.90;;;;;;5051906;28;20183;-55
2021/03/22 12:13:24;;;;;;;4.20;2.37;;;9.20;99.90;;;;;;5039649;28;20548;-54
2021/03/22 12:15:49;;;;;;;7.33;2.73;;;9.30;99.90;;;;;;5039700;28;20179;-54
2021/03/22 12:18:28;;;;;;;4.53;2.13;;;9.50;99.90;;;;;;5047789;28;20764;-54
2021/03/22 12:20:54;;;;;;;3.47;2.20;;;9.60;99.90;;;;;;5050987;28;20682;-55
2021/03/22 12:23:19;;;;;;;5.27;2.30;;;9.60;99.90;;;;;;5039854;28;20218;-53
2021/03/22 12:25:45;;;;;;;3.77;2.53;;;9.60;99.90;;;;;;5039570;28;20202;-57
2021/03/22 12:28:11;;;;;;;6.90;2.80;;;9.60;99.90;;;;;;5041814;28;20210;-49
2021/03/22 12:30:36;;;;;;;5.80;2.20;;;9.60;99.90;;;;;;5047168;28;20312;-56
2021/03/22 12:33:04;;;;;;;7.27;2.63;;;9.50;99.90;;;;;;5047882;28;20874;-56
2021/03/22 12:35:36;;;;;;;3.80;2.20;;;9.60;99.90;;;;;;5054860;28;20283;-52
2021/03/22 12:38:04;;;;;;;4.03;2.03;;;9.50;99.90;;;;;;5044987;28;20278;-53
2021/03/22 12:40:30;;;;;;;3.57;1.67;;;9.50;99.90;;;;;;5057121;28;20190;-53
2021/03/22 12:42:56;;;;;;;4.47;2.43;;;9.40;99.90;;;;;;5026673;28;20187;-54
2021/03/22 12:45:33;;;;;;;5.77;2.50;;;9.30;99.90;;;;;;5049795;28;20562;-55
2021/03/22 12:47:59;;;;;;;6.30;2.30;;;9.30;99.90;;;;;;5043323;28;20211;-55
2021/03/22 12:50:39;;;;;;;4.57;2.73;;;9.30;99.90;;;;;;5057700;28;20176;-54
2021/03/22 12:53:08;;;;;;;5.27;2.10;;;9.40;99.90;;;;;;5035901;28;20201;-55
2021/03/22 12:55:33;;;;;;;4.00;2.00;;;9.40;99.90;;;;;;5041732;28;20271;-52
2021/03/22 12:58:02;;;;;;;4.53;2.03;;;9.50;99.90;;;;;;5019069;28;20211;-52
2021/03/22 13:00:29;;;;;;;7.37;2.00;;;9.40;99.90;;;;;;5038546;28;20206;-54
2021/03/22 13:02:56;;;;;;;3.53;2.03;;;9.40;99.90;;;;;;5031557;28;20222;-56
2021/03/22 13:05:30;;;;;;;8.03;2.50;;;9.30;99.90;;;;;;5038703;28;20447;-54
2021/03/22 13:07:56;;;;;;;8.10;2.00;;;9.40;99.90;;;;;;5050200;28;20892;-53
2021/03/22 13:10:25;;;;;;;4.70;1.50;;;9.40;99.90;;;;;;5043152;28;20191;-52
2021/03/22 13:12:50;;;;;;;5.70;2.40;;;9.40;99.90;;;;;;5041035;28;20225;-56
2021/03/22 13:15:33;;;;;;;5.07;1.97;;;9.50;99.90;;;;;;5036540;28;20594;-52
2021/03/22 13:17:59;;;;;;;3.07;2.07;;;9.60;99.90;;;;;;5046088;28;20734;-53
2021/03/22 13:20:27;;;;;;;3.63;2.43;;;9.60;99.90;;;;;;5042721;28;20211;-49
2021/03/22 13:22:53;;;;;;;4.27;2.27;;;9.60;99.90;;;;;;5041129;28;20184;-57
2021/03/22 13:25:19;;;;;;;7.30;2.67;;;9.40;99.90;;;;;;5038994;28;20198;-52